Ride Results

Lake Manchester (09-07-2006)
Ride distance: 80.0 km

Outcomes - Lake Manchester (09-07-2006)
Division No. of Entries Retired / DNE Completed Withdrawn Ineligible V/O Percentage Completed
HW 14 - 10 2 1 1 71.43%
MW 26 - 21 - - 5 80.77%
LW 25 - 22 1 - 2 88.00%
JN 9 - 6 1 - 2 66.67%
Totals 74 - 59 4 1 10 79.73%
Results - Lake Manchester (09-07-2006)
No. Rider Horse Place Time Leg Speeds Total
Km/Hr
H/R bpm
Heavyweight
164 David Horton Camelot Retreat Azada 1 5:26:00 15.0, 14.3 14.72 38, 39, 42 (Avg:40)
149 Mark Nimon Abbeywood Solitare 2 6:35:00 12.7, 11.5 12.15 39, 41, 52 (Avg:46)
152 Paul Lengronne Karim's Pride 3 6:35:01 12.2, 11.9 12.15 30, 38, 45 (Avg:41)
174 Michael Toft Bremervale Bey Warlord 4 6:39:00 11.7, 12.3 12.03 31, 41, 54 (Avg:47)
104 Leanne Le Claire Licketty Split 5 6:45:00 12.9, 10.8 11.85 31, 45, 47 (Avg:46)
114 Peter Casey Fred 6 7:04:00 11.9, 10.7 11.32 34, 38, 41 (Avg:39)
169 Niels Lochtenberg Matta Mia Dollar 7 7:13:00 11.2, 10.9 11.09 36, 43, 46 (Avg:44)
108 Tim Weismann Hirstglen Maybe 8 7:49:00 10.2, 10.1 10.23 35, 42, 47 (Avg:44)
106 John Stewart Rushworth Ernie Miller 9 8:03:00 10.2, 9.5 9.94 34, 39, 49 (Avg:44)
161 Helen Moore Summer Park Douglas Explorer 10 8:39:00 8.8, 9.7 9.25 31, 45, 48 (Avg:46)
143H Michael Shaw Rayellen Zeus Metabolics non-invasive L1 0:00:00 11.3 - 36, 60 (Avg:60)
158H Roy Barsby Aloha Grace Widthdrawn P/R 0:00:00 - - 34
119 Davin Coughran Cedar Springs The Full Monty Not Finished P/R 0:00:00 - - -
134 Matthew Sample Tarrangower Crecendo Widthdrawn P/R 0:00:00 - - 33
Middleweight
102 Cora Becker Obi Rain Dance 1 4:43:00 16.1, 17.9 16.96 30, 37, 44 (Avg:40)
140 Anne Criner Taliser 2 4:59:00 16.0, 16.0 16.05 33, 36, 44 (Avg:40)
142 Wayne McKinnon Dunbar Lexus 2 4:59:00 16.0, 16.0 16.05 34, 39, 44 (Avg:41)
137 Brook Sample La Mancha Archduke 2 4:59:00 15.6, 16.5 16.05 34, 43, 41 (Avg:42)
107 John Hampson Eaglemoon 5 5:26:00 16.0, 13.4 14.72 39, 43, 54 (Avg:48)
168 Ken Moir Drumlin Moonshine 6 5:48:00 14.6, 12.9 13.79 31, 38, 42 (Avg:40)
158 Bruce Seaward Aloha Grace 7 6:36:00 11.5, 12.8 12.12 34, 46, 46 (Avg:46)
120 Jo Barsby Burgler 8 6:39:00 12.1, 11.9 12.03 34, 39, 48 (Avg:43)
172 Damien Keys Meadow View Karnak 9 6:45:00 12.8, 10.9 11.85 32, 41, 51 (Avg:46)
111 Sue Crockett Alamo Minelli 10 6:45:01 12.9, 10.8 11.85 34, 47, 39 (Avg:43)
155 Bridget Nottle Keisha 11 6:46:00 11.3, 12.3 11.82 31, 36, 42 (Avg:39)
113 Shannon Norton Sam 12 7:04:00 11.7, 10.9 11.32 37, 52, 46 (Avg:49)
151 Marion Lengronne Cameo Renezar 13 7:11:00 11.3, 10.9 11.14 37, 44, 37 (Avg:40)
128 Fiona Fenech Jessie Ima James 14 7:14:00 11.3, 10.7 11.06 43, 44, 48 (Avg:46)
125 Steve Gray Raaward Samaya 15 7:37:00 12.8, 8.7 10.50 40, 45, 60 (Avg:52)
109 Donna Brooker Hirstglen Mustang Sally 16 7:49:00 10.2, 10.1 10.23 37, 43, 54 (Avg:48)
117 Derek Armitage Moorah Park Mickerby 17 8:03:02 9.2, 10.8 9.94 32, 36, 40 (Avg:38)
116 Molly Hall Tracallan Dante 18 8:10:00 9.2, 10.4 9.80 33, 43, 43 (Avg:43)
133 Jo Stewart Maxus Tiger Lily 19 8:14:00 11.5, 8.2 9.72 40, 38, 41 (Avg:39)
176 Olga Bartlett Cingala Royalle 20 8:22:02 9.6, 9.4 9.56 36, 45, 44 (Avg:44)
171 Viv Butler Sadaqa 20 8:22:02 9.6, 9.4 9.56 34, 50, 51 (Avg:50)
144 Emma Holland Sa-Har Kiata Lame L2 0:00:00 11.1, 17.2 - 37, 41, 48 (Avg:44)
105 Wendy Smith Roshar Talima Lame L2 0:00:00 12.9, 8.7 - 40, 44, 48 (Avg:46)
141 Jacque Wright Sideshow Bob Lame L2 0:00:00 11.1, 9.1 - 46, 46, 51 (Avg:48)
139 Arch Felton Hirstglen Elite Lame L1 0:00:00 12.8 - 34, 41 (Avg:41)
173 Deborah Hargie Gailfree Tia Lame L1 0:00:00 9.6 - 35, 40 (Avg:40)
Lightweight
101 Sarah Love Koorong Elijah 1 5:13:00 15.9, 14.7 15.34 39, 45, 47 (Avg:46)
163 Karen Winkel Captain's Creek Cruise 2 5:26:00 15.0, 14.3 14.72 27, 33, 45 (Avg:39)
167 Deanna Loomes Warr of the Roses 3 5:48:00 15.0, 12.5 13.79 32, 38, 44 (Avg:41)
154 Clare Fleming Memento 4 6:35:00 13.2, 11.1 12.15 38, 49, 44 (Avg:46)
157 Caroline Windle Bradali Asefa 5 6:36:00 11.5, 12.8 12.12 30, 45, 44 (Avg:44)
159 Melodie Churchill Nihal 6 6:36:01 11.9, 12.3 12.12 35, 49, 60 (Avg:54)
150 Emma Kirby Bremervale Bandyt 7 7:11:00 13.0, 9.5 11.14 44, 52, 48 (Avg:50)
153 Sandra Bishop Midu Kaleisha 8 7:11:01 11.3, 10.9 11.14 32, 49, 43 (Avg:46)
138 Katherine Ryan Sovereeign 9 7:11:03 10.4, 11.9 11.14 36, 40, 41 (Avg:40)
170 Bobbi Lochtenberg Sooty Bye Royal 10 7:13:00 11.2, 10.9 11.09 32, 45, 49 (Avg:47)
127 Sarrah Lee Fenech Pilgrim 11 7:14:00 8.9, 14.9 11.06 39, 42, 45 (Avg:43)
130 Anne Jones Noondi Sadja 12 7:16:00 11.0, 11.0 11.01 37, 38, 48 (Avg:43)
110 Corinne Rees Kira 13 7:49:00 10.2, 10.1 10.23 32, 44, 45 (Avg:44)
123 Carolyn Strahan Dunwingeri Saahma 14 7:55:02 11.0, 9.2 10.10 39, 45, 53 (Avg:49)
143 Tomarra Serjeant Kalkadoon Vamp 15 7:58:00 11.1, 9.0 10.04 30, 36, 36 (Avg:36)
166 Karen Trundell Rodborough Eclipse 16 8:03:02 9.2, 10.8 9.94 36, 37, 47 (Avg:42)
160 Rachel Kuns Kelkette Park Finesse 17 8:07:00 10.1, 9.5 9.86 30, 39, 54 (Avg:46)
115 Angela Hawks Nickolodeon 18 8:10:00 9.2, 10.4 9.80 34, 55, 60 (Avg:57)
175 Renae Kuhn Mt Eerwah Silver Mariner 19 8:13:00 11.1, 8.5 9.74 30, 41, 41 (Avg:41)
132 Tara Poole Meltharina Mercury 20 8:22:00 9.2, 9.8 9.56 29, 52, 56 (Avg:54)
147 Carla Jones Mt Eerwah Anastazia 21 8:29:00 9.1, 9.7 9.43 36, 41, 48 (Avg:44)
146 Hayley Murphy Apollo 21 8:29:00 9.1, 9.7 9.43 38, 42, 45 (Avg:43)
121 Donna Roberts Kasbah Kid Heart Rate L2 0:00:00 11.0, 9.2 - 36, 46, 65 (Avg:55)
112 Terri Anderson Hillbrae Count Rebellion Widthdrawn L1 0:00:00 - - 40, 40 (Avg:40)
135 Kaylea Maher Gift Lame L1 0:00:00 15.8 - 31, 42 (Avg:42)
Junior
136 Saasha Grogan Duloe Dollar 1 5:03:00 15.6, 16.0 15.84 34, 39, 41 (Avg:40)
156 Tarnia Kittel Performance Park Lady Kharisma 2 6:46:00 11.3, 12.3 11.82 32, 40, 40 (Avg:40)
126 Elke Zischke Belgari Fidesz 3 7:14:00 11.3, 10.7 11.06 38, 40, 43 (Avg:41)
131 Jade Vergis Kelkette Park Silver Elite 4 7:16:00 11.0, 11.0 11.01 33, 40, 44 (Avg:42)
145 Emily O'Shea Roswick Fall 5 7:58:00 12.2, 8.3 10.04 32, 41, 43 (Avg:42)
103 Ashley Ross Dardanga Harmony 6 8:44:00 8.3, 10.3 9.16 32, 39, 45 (Avg:42)
118 Carmel Trevorrow El Sarem Glyde Lame L2 0:00:00 9.2, 15.1 - 35, 41, 42 (Avg:41)
124 Amaya Thomas Tallio Muftakher Lame L1 0:00:00 11.3 - 32, 39 (Avg:39)
162 Antony Moore Arabcrest Regal Spirit Widthdrawn P/R 0:00:00 - - -